createdAt,value
2022-11-16T00:02:16.608Z,8.30
2022-11-16T00:08:18.320Z,8.67
2022-11-16T00:14:20.877Z,8.45
2022-11-16T00:20:22.335Z,8.40
2022-11-16T00:26:24.051Z,9.05
2022-11-16T00:32:25.950Z,9.43
2022-11-16T00:38:27.887Z,9.50
2022-11-16T00:44:29.420Z,9.38
2022-11-16T00:50:31.400Z,8.87
2022-11-16T00:56:33.402Z,9.55
2022-11-16T01:02:35.430Z,9.25
2022-11-16T01:08:38.016Z,9.20
2022-11-16T01:14:40.624Z,10.27
2022-11-16T01:20:42.152Z,9.60
2022-11-16T01:26:43.601Z,9.65
2022-11-16T01:32:45.184Z,9.13
2022-11-16T01:38:47.267Z,9.03
2022-11-16T01:44:56.605Z,9.05
2022-11-16T01:50:58.188Z,9.20
2022-11-16T01:57:01.689Z,9.52
2022-11-16T02:03:09.436Z,9.48
2022-11-16T02:09:39.655Z,9.20
2022-11-16T02:15:45.058Z,8.93
2022-11-16T02:22:17.759Z,9.30
2022-11-16T02:28:39.565Z,8.70
2022-11-16T02:34:55.619Z,8.70
2022-11-16T02:41:01.815Z,8.60
2022-11-16T02:47:07.490Z,8.63
2022-11-16T02:53:09.263Z,7.97
2022-11-16T02:59:15.222Z,8.65
2022-11-16T03:05:32.207Z,8.40
2022-11-16T03:11:58.999Z,8.10
2022-11-16T03:18:01.590Z,8.07
2022-11-16T03:24:03.631Z,8.27
2022-11-16T03:30:12.270Z,8.25
2022-11-16T03:36:23.244Z,8.18
2022-11-16T03:42:26.013Z,8.07
2022-11-16T03:48:37.775Z,8.05
2022-11-16T03:54:44.133Z,8.33
2022-11-16T04:00:46.943Z,7.85
2022-11-16T04:07:07.278Z,8.00
2022-11-16T04:13:29.010Z,7.53
2022-11-16T04:19:51.756Z,7.45
2022-11-16T04:25:55.626Z,6.67
2022-11-16T04:32:16.920Z,7.22
2022-11-16T04:38:18.738Z,6.80
2022-11-16T04:44:20.419Z,7.30
2022-11-16T04:50:21.998Z,7.28
2022-11-16T04:56:24.756Z,7.63
2022-11-16T05:02:26.346Z,7.25
2022-11-16T05:08:31.885Z,7.10
2022-11-16T05:14:34.519Z,7.27
2022-11-16T05:20:54.865Z,6.85
2022-11-16T05:26:56.895Z,6.33
2022-11-16T05:32:58.510Z,6.70
2022-11-16T05:39:00.747Z,6.80
2022-11-16T05:45:05.734Z,6.77
2022-11-16T05:51:07.377Z,6.82
2022-11-16T05:57:09.670Z,6.33
2022-11-16T06:03:11.649Z,6.47
2022-11-16T06:09:14.031Z,6.55
2022-11-16T06:15:15.641Z,7.40
2022-11-16T06:21:19.290Z,6.47
2022-11-16T06:27:21.535Z,7.30
2022-11-16T06:33:23.567Z,6.75
2022-11-16T06:39:25.477Z,7.28
2022-11-16T06:45:27.363Z,7.00
2022-11-16T06:51:32.342Z,6.63
2022-11-16T06:57:35.594Z,6.83
2022-11-16T07:03:38.474Z,6.85
2022-11-16T07:09:43.037Z,6.30
2022-11-16T07:15:45.163Z,6.13
2022-11-16T07:21:47.994Z,6.68
2022-11-16T07:27:52.740Z,6.37
2022-11-16T07:33:55.964Z,6.43
2022-11-16T07:40:15.986Z,5.65
2022-11-16T07:46:45.239Z,5.63
2022-11-16T07:52:46.436Z,6.10
2022-11-16T07:58:54.504Z,6.00
2022-11-16T08:04:56.508Z,5.72
2022-11-16T08:11:02.354Z,5.50
2022-11-16T08:17:04.918Z,5.83
2022-11-16T08:23:07.104Z,5.55
2022-11-16T08:29:11.438Z,6.00
2022-11-16T08:35:15.976Z,5.00
2022-11-16T08:41:20.048Z,5.30
2022-11-16T08:47:21.791Z,5.80
2022-11-16T08:53:27.324Z,5.00
2022-11-16T08:59:28.902Z,4.90
2022-11-16T09:05:34.895Z,4.93
2022-11-16T09:11:36.706Z,5.25
2022-11-16T09:17:38.180Z,5.90
2022-11-16T09:23:39.650Z,5.55
2022-11-16T09:29:41.194Z,5.33
2022-11-16T09:35:42.828Z,5.80
2022-11-16T09:41:53.360Z,5.57
2022-11-16T09:47:57.511Z,5.43
2022-11-16T09:54:11.842Z,5.00
2022-11-16T10:00:19.517Z,4.90
2022-11-16T10:06:22.662Z,4.93
2022-11-16T10:12:29.960Z,4.50
2022-11-16T10:18:49.998Z,4.67
2022-11-16T10:24:58.722Z,5.18
2022-11-16T10:31:06.918Z,5.63
2022-11-16T10:37:10.609Z,5.22
2022-11-16T10:43:12.067Z,6.82
2022-11-16T10:49:16.276Z,6.10
2022-11-16T10:55:20.531Z,6.03
2022-11-16T11:01:29.086Z,5.47
2022-11-16T11:07:32.844Z,5.88
2022-11-16T11:13:34.658Z,5.80
2022-11-16T11:19:36.513Z,5.97
2022-11-16T11:25:51.842Z,6.20
2022-11-16T11:31:59.997Z,5.30
2022-11-16T11:38:07.711Z,5.43
2022-11-16T11:44:12.634Z,5.63
2022-11-16T11:50:18.155Z,6.43
2022-11-16T11:56:19.731Z,7.68
2022-11-16T12:02:24.517Z,8.07
2022-11-16T12:08:37.722Z,8.25
2022-11-16T12:14:56.108Z,7.90
2022-11-16T12:21:13.996Z,7.57
2022-11-16T12:27:26.878Z,7.78
2022-11-16T12:33:37.569Z,8.63
2022-11-16T12:39:43.291Z,8.32
2022-11-16T12:45:57.687Z,8.25
2022-11-16T12:52:08.319Z,8.67
2022-11-16T12:58:18.749Z,9.20
2022-11-16T13:04:23.271Z,10.03
2022-11-16T13:10:27.951Z,10.05
2022-11-16T13:16:29.998Z,10.52
2022-11-16T13:22:32.512Z,10.50
2022-11-16T13:28:42.401Z,11.38
2022-11-16T13:34:44.333Z,11.73
2022-11-16T13:40:45.874Z,11.73
2022-11-16T13:46:57.340Z,11.63
2022-11-16T13:59:25.193Z,12.55
2022-11-16T14:05:37.808Z,14.17
2022-11-16T14:11:40.037Z,14.85
2022-11-16T14:18:01.711Z,15.82
2022-11-16T14:24:15.571Z,15.33
2022-11-16T14:30:19.837Z,16.95
2022-11-16T14:36:38.493Z,17.17
2022-11-16T14:43:15.487Z,16.55
2022-11-16T14:49:14.292Z,16.15
2022-11-16T14:55:24.353Z,17.67
2022-11-16T15:01:29.992Z,17.42
2022-11-16T15:07:31.513Z,17.37
2022-11-16T15:13:33.440Z,17.60
2022-11-16T15:19:35.200Z,18.83
2022-11-16T15:25:41.560Z,19.33
2022-11-16T15:31:43.243Z,18.15
2022-11-16T15:37:44.741Z,18.57
2022-11-16T15:44:12.729Z,18.70
2022-11-16T15:50:16.663Z,17.45
2022-11-16T15:56:31.683Z,16.53
2022-11-16T16:02:33.203Z,16.50
2022-11-16T16:08:34.749Z,16.43
2022-11-16T16:14:36.316Z,16.77
2022-11-16T16:20:38.145Z,17.17
2022-11-16T16:26:39.607Z,15.73
2022-11-16T16:32:41.117Z,16.23
2022-11-16T16:38:42.682Z,15.30
2022-11-16T16:44:44.653Z,12.93
2022-11-16T16:50:46.296Z,12.73
2022-11-16T16:56:47.800Z,11.97
2022-11-16T17:02:49.423Z,11.13
2022-11-16T17:08:51.064Z,11.50
2022-11-16T17:14:52.551Z,12.13
2022-11-16T17:20:54.047Z,11.63
2022-11-16T17:26:55.589Z,11.00
2022-11-16T17:32:57.873Z,12.80
2022-11-16T17:38:59.548Z,11.30
2022-11-16T17:45:01.479Z,10.98
2022-11-16T17:51:03.522Z,10.60
2022-11-16T17:57:05.067Z,9.17
2022-11-16T18:03:06.766Z,10.15
2022-11-16T18:09:08.361Z,9.20
2022-11-16T18:21:37.735Z,8.10
2022-11-16T18:27:39.324Z,7.50
2022-11-16T18:33:42.804Z,7.15
2022-11-16T18:39:44.590Z,6.60
2022-11-16T18:45:46.503Z,6.38
2022-11-16T18:51:48.125Z,5.63
2022-11-16T18:57:49.756Z,5.90
2022-11-16T19:03:51.811Z,5.95
2022-11-16T19:09:53.472Z,4.97
2022-11-16T19:15:55.423Z,4.65
2022-11-16T19:21:57.211Z,4.65
2022-11-16T19:27:58.797Z,3.70
2022-11-16T19:34:01.705Z,3.03
2022-11-16T19:40:03.854Z,2.97
2022-11-16T19:46:08.822Z,2.47
2022-11-16T19:52:10.662Z,2.53
2022-11-16T19:58:12.182Z,2.17
2022-11-16T20:04:15.202Z,2.42
2022-11-16T20:10:16.867Z,2.47
2022-11-16T20:16:19.491Z,2.15
2022-11-16T20:22:20.965Z,1.83
2022-11-16T20:28:22.708Z,2.17
2022-11-16T20:34:24.320Z,2.20
2022-11-16T20:40:25.825Z,2.30
2022-11-16T20:46:28.359Z,2.13
2022-11-16T20:52:29.970Z,2.08
2022-11-16T20:58:32.036Z,2.10
2022-11-16T21:04:33.565Z,2.00
2022-11-16T21:10:37.909Z,2.30
2022-11-16T21:16:39.505Z,2.47
2022-11-16T21:22:41.005Z,2.20
2022-11-16T21:28:45.272Z,2.50
2022-11-16T21:34:46.788Z,2.42
2022-11-16T21:40:48.382Z,2.23
2022-11-16T21:46:50.031Z,2.30
2022-11-16T21:52:51.518Z,2.20
2022-11-16T21:58:53.312Z,2.37
2022-11-16T22:05:13.541Z,2.20
2022-11-16T22:11:15.600Z,2.47
2022-11-16T22:17:17.139Z,2.17
2022-11-16T22:23:22.846Z,1.95
2022-11-16T22:29:25.603Z,2.47
2022-11-16T22:35:27.053Z,2.50
2022-11-16T22:41:28.494Z,4.07
2022-11-16T22:47:29.961Z,2.70
2022-11-16T22:53:31.551Z,2.67
2022-11-16T22:59:33.141Z,2.57
2022-11-16T23:05:34.615Z,2.35
2022-11-16T23:11:54.561Z,2.67
2022-11-16T23:17:56.250Z,2.60
2022-11-16T23:24:16.426Z,2.70
2022-11-16T23:30:17.925Z,2.70
2022-11-16T23:36:19.378Z,2.90
2022-11-16T23:42:39.374Z,2.67
2022-11-16T23:48:40.811Z,3.00
2022-11-16T23:54:42.280Z,2.80
